createdAt,value
2022-10-02T00:02:42.436Z,4.60
2022-10-02T00:05:29.752Z,4.20
2022-10-02T00:08:03.401Z,3.80
2022-10-02T00:10:42.664Z,3.70
2022-10-02T00:13:15.951Z,4.20
2022-10-02T00:15:43.455Z,3.10
2022-10-02T00:18:18.494Z,3.30
2022-10-02T00:21:20.468Z,4.00
2022-10-02T00:23:54.068Z,5.30
2022-10-02T00:26:35.000Z,4.90
2022-10-02T00:29:23.559Z,9.00
2022-10-02T00:31:59.327Z,7.10
2022-10-02T00:35:14.521Z,6.20
2022-10-02T00:38:18.769Z,6.10
2022-10-02T00:41:26.063Z,7.70
2022-10-02T00:44:20.667Z,6.10
2022-10-02T00:47:08.617Z,6.60
2022-10-02T00:49:48.011Z,4.80
2022-10-02T00:52:29.847Z,4.50
2022-10-02T00:55:08.547Z,4.60
2022-10-02T00:58:03.104Z,7.20
2022-10-02T01:00:29.976Z,4.70
2022-10-02T01:03:05.768Z,4.00
2022-10-02T01:05:33.897Z,7.10
2022-10-02T01:08:01.296Z,5.00
2022-10-02T01:10:28.762Z,5.80
2022-10-02T01:12:57.046Z,5.90
2022-10-02T01:15:31.915Z,4.90
2022-10-02T01:17:58.869Z,6.10
2022-10-02T01:20:37.943Z,4.80
2022-10-02T01:23:42.390Z,6.00
2022-10-02T01:26:09.062Z,5.30
2022-10-02T01:28:35.814Z,5.50
2022-10-02T01:31:08.569Z,4.40
2022-10-02T01:33:38.120Z,4.10
2022-10-02T01:36:05.735Z,4.30
2022-10-02T01:38:32.273Z,4.10
2022-10-02T01:40:58.745Z,3.70
2022-10-02T01:43:35.691Z,4.40
2022-10-02T01:46:21.072Z,5.70
2022-10-02T01:48:55.675Z,3.20
2022-10-02T01:51:28.082Z,2.90
2022-10-02T01:54:20.729Z,3.20
2022-10-02T01:56:53.177Z,3.90
2022-10-02T01:59:40.445Z,6.00
2022-10-02T02:02:31.512Z,3.60
2022-10-02T02:05:04.801Z,3.40
2022-10-02T02:07:39.279Z,3.80
2022-10-02T02:10:26.548Z,3.40
2022-10-02T02:13:02.667Z,4.00
2022-10-02T02:15:43.308Z,3.50
2022-10-02T02:18:17.460Z,3.50
2022-10-02T02:20:48.281Z,3.10
2022-10-02T02:23:20.368Z,4.50
2022-10-02T02:25:51.397Z,2.90
2022-10-02T02:28:21.311Z,3.50
2022-10-02T02:30:51.830Z,2.80
2022-10-02T02:33:24.757Z,2.70
2022-10-02T02:35:58.840Z,4.90
2022-10-02T02:38:32.734Z,4.10
2022-10-02T02:41:12.340Z,4.00
2022-10-02T02:43:54.245Z,2.10
2022-10-02T02:46:39.444Z,4.90
2022-10-02T02:49:11.799Z,5.20
2022-10-02T02:51:42.125Z,3.80
2022-10-02T02:54:37.803Z,3.70
2022-10-02T02:57:07.558Z,2.40
2022-10-02T02:59:36.227Z,4.70
2022-10-02T03:02:02.964Z,3.10
2022-10-02T03:04:29.532Z,4.40
2022-10-02T03:07:01.417Z,4.30
2022-10-02T03:09:30.663Z,2.50
2022-10-02T03:12:16.607Z,3.50
2022-10-02T03:14:58.514Z,2.70
2022-10-02T03:17:44.546Z,3.80
2022-10-02T03:20:34.495Z,4.70
2022-10-02T03:23:28.484Z,2.70
2022-10-02T03:26:08.840Z,2.40
2022-10-02T03:28:56.001Z,3.50
2022-10-02T03:31:27.868Z,3.20
2022-10-02T03:33:55.593Z,3.90
2022-10-02T03:36:22.893Z,2.70
2022-10-02T03:39:12.530Z,3.40
2022-10-02T03:41:38.589Z,3.00
2022-10-02T03:44:05.102Z,5.10
2022-10-02T03:46:31.659Z,2.40
2022-10-02T03:48:58.214Z,2.60
2022-10-02T03:51:24.816Z,3.10
2022-10-02T03:53:52.282Z,2.90
2022-10-02T03:56:24.695Z,2.50
2022-10-02T03:58:55.027Z,3.50
2022-10-02T04:01:37.267Z,5.10
2022-10-02T04:04:15.024Z,4.40
2022-10-02T04:06:47.272Z,4.70
2022-10-02T04:09:21.593Z,5.90
2022-10-02T04:11:55.302Z,5.00
2022-10-02T04:14:30.693Z,2.70
2022-10-02T04:17:04.045Z,3.50
2022-10-02T04:19:47.501Z,3.70
2022-10-02T04:22:39.671Z,3.40
2022-10-02T04:25:32.615Z,4.80
2022-10-02T04:28:05.579Z,3.20
2022-10-02T04:30:32.221Z,3.00
2022-10-02T04:33:10.637Z,4.50
2022-10-02T04:35:56.363Z,7.60
2022-10-02T04:38:31.657Z,3.40
2022-10-02T04:41:10.409Z,6.90
2022-10-02T04:43:59.033Z,4.30
2022-10-02T04:46:37.682Z,4.00
2022-10-02T04:49:26.374Z,3.50
2022-10-02T04:52:09.533Z,5.90
2022-10-02T04:54:48.418Z,5.00
2022-10-02T04:57:33.905Z,3.80
2022-10-02T05:00:21.804Z,5.60
2022-10-02T05:03:26.177Z,4.80
2022-10-02T05:06:38.841Z,3.30
2022-10-02T05:09:48.203Z,7.50
2022-10-02T05:12:24.128Z,3.90
2022-10-02T05:14:56.288Z,3.30
2022-10-02T05:17:22.728Z,3.70
2022-10-02T05:20:06.867Z,3.70
2022-10-02T05:22:58.405Z,3.80
2022-10-02T05:25:36.738Z,3.40
2022-10-02T05:28:12.256Z,6.40
2022-10-02T05:31:18.157Z,4.40
2022-10-02T05:33:53.787Z,6.50
2022-10-02T05:36:32.520Z,4.80
2022-10-02T05:39:37.670Z,2.30
2022-10-02T05:42:14.755Z,6.80
2022-10-02T05:44:50.750Z,3.90
2022-10-02T05:47:28.575Z,6.70
2022-10-02T05:50:16.872Z,5.30
2022-10-02T05:53:05.289Z,7.00
2022-10-02T05:55:38.262Z,3.60
2022-10-02T05:58:41.631Z,4.00
2022-10-02T06:01:15.583Z,5.30
2022-10-02T06:03:47.984Z,3.30
2022-10-02T06:06:31.575Z,4.00
2022-10-02T06:09:04.409Z,4.90
2022-10-02T06:11:41.352Z,2.90
2022-10-02T06:14:19.701Z,6.20
2022-10-02T06:16:54.114Z,6.00
2022-10-02T06:19:32.408Z,4.20
2022-10-02T06:22:06.427Z,6.90
2022-10-02T06:24:47.356Z,6.50
2022-10-02T06:27:48.956Z,5.60
2022-10-02T06:30:18.065Z,3.80
2022-10-02T06:33:22.543Z,4.30
2022-10-02T06:36:04.419Z,5.10
2022-10-02T06:38:53.566Z,5.50
2022-10-02T06:41:47.188Z,7.90
2022-10-02T06:44:35.391Z,7.90
2022-10-02T06:47:50.474Z,7.90
2022-10-02T06:50:26.128Z,5.30
2022-10-02T06:53:00.246Z,4.60
2022-10-02T06:55:40.614Z,5.20
2022-10-02T06:58:25.794Z,6.80
2022-10-02T07:01:02.647Z,7.40
2022-10-02T07:03:51.643Z,5.20
2022-10-02T07:06:23.820Z,5.30
2022-10-02T07:09:33.859Z,8.00
2022-10-02T07:12:15.170Z,4.30
2022-10-02T07:17:45.161Z,5.10
2022-10-02T07:20:59.685Z,5.40
2022-10-02T07:23:43.867Z,7.10
2022-10-02T07:26:54.312Z,5.40
2022-10-02T07:29:32.317Z,4.50
2022-10-02T07:32:41.458Z,5.10
2022-10-02T07:35:19.880Z,5.80
2022-10-02T07:38:05.269Z,4.90
2022-10-02T07:40:34.883Z,5.30
2022-10-02T07:43:19.351Z,5.50
2022-10-02T07:46:00.191Z,6.00
2022-10-02T07:49:14.959Z,6.40
2022-10-02T07:52:01.098Z,5.10
2022-10-02T07:54:49.142Z,5.30
2022-10-02T07:57:46.735Z,5.60
2022-10-02T08:00:16.323Z,3.00
2022-10-02T08:03:00.237Z,8.60
2022-10-02T08:05:49.029Z,5.50
2022-10-02T08:08:38.411Z,3.70
2022-10-02T08:11:13.627Z,4.60
2022-10-02T08:13:51.453Z,4.70
2022-10-02T08:16:20.572Z,7.20
2022-10-02T08:19:02.660Z,6.10
2022-10-02T08:21:32.879Z,5.90
2022-10-02T08:24:23.619Z,3.60
2022-10-02T08:27:06.722Z,5.70
2022-10-02T08:29:33.264Z,7.40
2022-10-02T08:31:59.848Z,5.70
2022-10-02T08:34:28.287Z,3.40
2022-10-02T08:37:42.602Z,3.40
2022-10-02T08:40:46.878Z,4.80
2022-10-02T08:43:43.481Z,7.40
2022-10-02T08:46:21.944Z,5.20
2022-10-02T08:49:15.924Z,4.20
2022-10-02T08:52:05.814Z,5.40
2022-10-02T08:55:09.428Z,4.80
2022-10-02T08:58:13.104Z,3.80
2022-10-02T09:00:58.584Z,5.40
2022-10-02T09:03:49.541Z,5.00
2022-10-02T09:06:38.978Z,4.70
2022-10-02T09:09:43.002Z,3.60
2022-10-02T09:12:28.309Z,5.60
2022-10-02T09:15:15.703Z,4.70
2022-10-02T09:17:42.181Z,5.50
2022-10-02T09:20:23.831Z,5.60
2022-10-02T09:23:20.745Z,4.40
2022-10-02T09:25:57.278Z,6.00
2022-10-02T09:28:39.099Z,4.20
2022-10-02T09:31:36.844Z,7.00
2022-10-02T09:34:34.750Z,7.70
2022-10-02T09:37:42.248Z,5.40
2022-10-02T09:40:28.966Z,4.60
2022-10-02T09:43:18.295Z,6.00
2022-10-02T09:46:03.563Z,5.20
2022-10-02T09:48:53.717Z,6.30
2022-10-02T09:51:45.244Z,6.30
2022-10-02T09:54:36.204Z,6.10
2022-10-02T09:57:38.204Z,5.50
2022-10-02T10:00:24.184Z,4.40
2022-10-02T10:03:12.725Z,3.70
2022-10-02T10:06:13.427Z,5.10
2022-10-02T10:08:46.404Z,5.10
2022-10-02T10:11:25.882Z,8.50
2022-10-02T10:14:23.729Z,4.30
2022-10-02T10:17:34.205Z,5.10
2022-10-02T10:20:18.108Z,3.80
2022-10-02T10:23:01.037Z,7.80
2022-10-02T10:25:58.756Z,4.90
2022-10-02T10:28:46.903Z,8.00
2022-10-02T10:32:00.554Z,6.30
2022-10-02T10:34:49.005Z,5.40
2022-10-02T10:37:36.698Z,5.30
2022-10-02T10:40:26.841Z,4.90
2022-10-02T10:43:27.567Z,4.20
2022-10-02T10:46:12.746Z,5.20
2022-10-02T10:49:07.773Z,4.30
2022-10-02T10:51:53.975Z,3.60
2022-10-02T10:54:51.315Z,4.10
2022-10-02T10:57:24.333Z,4.70
2022-10-02T11:00:10.772Z,5.50
2022-10-02T11:02:59.465Z,4.00
2022-10-02T11:06:04.760Z,5.30
2022-10-02T11:08:47.539Z,6.00
2022-10-02T11:11:31.535Z,4.20
2022-10-02T11:14:13.129Z,5.30
2022-10-02T11:17:01.483Z,6.30
2022-10-02T11:19:52.948Z,4.10
2022-10-02T11:22:29.276Z,3.30
2022-10-02T11:25:12.552Z,5.30
2022-10-02T11:28:03.804Z,5.80
2022-10-02T11:30:51.317Z,5.00
2022-10-02T11:33:32.273Z,5.00
2022-10-02T11:38:43.045Z,4.30
2022-10-02T11:41:36.989Z,4.10
2022-10-02T11:44:22.547Z,3.80
2022-10-02T11:47:07.596Z,4.90
2022-10-02T11:49:49.284Z,6.70
2022-10-02T11:52:48.238Z,5.30
2022-10-02T11:55:33.168Z,7.20
2022-10-02T11:58:13.657Z,5.50
2022-10-02T12:01:17.247Z,5.30
2022-10-02T12:03:55.651Z,5.70
2022-10-02T12:07:00.094Z,4.80
2022-10-02T12:09:52.333Z,6.40
2022-10-02T12:12:29.399Z,3.20
2022-10-02T12:15:19.021Z,4.00
2022-10-02T12:18:00.291Z,5.60
2022-10-02T12:20:45.774Z,4.80
2022-10-02T12:23:35.800Z,5.10
2022-10-02T12:26:30.668Z,5.00
2022-10-02T12:29:12.506Z,5.40
2022-10-02T12:31:55.735Z,5.70
2022-10-02T12:34:38.177Z,4.00
2022-10-02T12:37:12.540Z,2.50
2022-10-02T12:39:54.061Z,4.80
2022-10-02T12:42:46.574Z,6.40
2022-10-02T12:45:31.568Z,7.80
2022-10-02T12:48:17.140Z,6.40
2022-10-02T12:51:18.378Z,4.20
2022-10-02T12:54:21.187Z,3.30
2022-10-02T12:57:22.442Z,3.80
2022-10-02T13:00:01.360Z,4.80
2022-10-02T13:03:01.219Z,8.80
2022-10-02T13:05:34.699Z,4.30
2022-10-02T13:08:28.377Z,5.70
2022-10-02T13:11:00.961Z,4.40
2022-10-02T13:13:54.543Z,4.40
2022-10-02T13:16:45.628Z,3.90
2022-10-02T13:19:35.847Z,4.40
2022-10-02T13:22:43.893Z,4.30
2022-10-02T13:25:33.864Z,3.50
2022-10-02T13:28:15.614Z,4.80
2022-10-02T13:31:21.048Z,2.90
2022-10-02T13:34:16.178Z,4.30
2022-10-02T13:37:01.795Z,4.00
2022-10-02T13:39:34.086Z,4.70
2022-10-02T13:42:14.960Z,4.70
2022-10-02T13:45:01.669Z,6.30
2022-10-02T13:47:36.000Z,5.20
2022-10-02T13:50:18.016Z,6.30
2022-10-02T13:52:50.680Z,4.00
2022-10-02T13:55:21.212Z,5.10
2022-10-02T13:58:35.984Z,3.30
2022-10-02T14:01:07.758Z,3.00
2022-10-02T14:03:47.928Z,4.10
2022-10-02T14:06:27.244Z,2.40
2022-10-02T14:09:18.052Z,3.20
2022-10-02T14:12:09.222Z,4.90
2022-10-02T14:15:12.299Z,4.50
2022-10-02T14:18:10.858Z,4.80
2022-10-02T14:20:46.511Z,3.50
2022-10-02T14:23:31.647Z,2.20
2022-10-02T14:26:04.784Z,4.00
2022-10-02T14:28:56.211Z,6.00
2022-10-02T14:31:30.158Z,5.50
2022-10-02T14:34:15.203Z,4.90
2022-10-02T14:37:09.799Z,6.60
2022-10-02T14:39:41.733Z,5.40
2022-10-02T14:42:38.669Z,8.20
2022-10-02T14:45:17.364Z,5.60
2022-10-02T14:48:17.876Z,3.70
2022-10-02T14:51:01.678Z,3.90
2022-10-02T14:54:06.058Z,5.10
2022-10-02T14:56:53.126Z,5.70
2022-10-02T14:59:38.626Z,4.50
2022-10-02T15:02:29.377Z,5.30
2022-10-02T15:07:35.162Z,4.20
2022-10-02T15:10:14.390Z,6.00
2022-10-02T15:12:59.669Z,4.70
2022-10-02T15:15:46.742Z,6.30
2022-10-02T15:18:41.024Z,6.40
2022-10-02T15:21:07.396Z,6.20
2022-10-02T15:23:33.857Z,6.30
2022-10-02T15:26:15.792Z,6.50
2022-10-02T15:28:55.867Z,5.90
2022-10-02T15:31:28.523Z,6.50
2022-10-02T15:34:39.201Z,9.30
2022-10-02T15:37:11.447Z,8.60
2022-10-02T15:40:11.653Z,7.90
2022-10-02T15:42:54.024Z,7.40
2022-10-02T15:45:49.982Z,7.60
2022-10-02T15:48:34.777Z,6.90
2022-10-02T15:51:19.348Z,10.60
2022-10-02T15:54:10.165Z,8.30
2022-10-02T15:57:18.275Z,6.80
2022-10-02T15:59:56.716Z,5.10
2022-10-02T16:03:01.434Z,3.60
2022-10-02T16:05:43.031Z,6.20
2022-10-02T16:08:24.370Z,5.80
2022-10-02T16:11:26.704Z,6.30
2022-10-02T16:14:17.817Z,6.90
2022-10-02T16:17:13.202Z,5.50
2022-10-02T16:20:04.262Z,5.30
2022-10-02T16:23:04.997Z,5.10
2022-10-02T16:25:53.187Z,4.30
2022-10-02T16:29:06.412Z,8.60
2022-10-02T16:31:42.068Z,6.90
2022-10-02T16:34:35.202Z,8.80
2022-10-02T16:37:20.281Z,11.20
2022-10-02T16:39:56.650Z,14.10
2022-10-02T16:42:31.301Z,9.90
2022-10-02T16:45:22.599Z,10.90
2022-10-02T16:48:00.643Z,14.30
2022-10-02T16:51:07.598Z,14.80
2022-10-02T16:53:36.805Z,10.40
2022-10-02T16:56:32.522Z,10.80
2022-10-02T16:59:09.570Z,13.40
2022-10-02T17:02:05.930Z,12.90
2022-10-02T17:04:55.245Z,19.50
2022-10-02T17:07:48.478Z,25.80
2022-10-02T17:10:36.961Z,25.30
2022-10-02T17:13:10.100Z,26.10
2022-10-02T17:15:45.180Z,46.30
2022-10-02T17:18:17.762Z,50.30
2022-10-02T17:20:49.772Z,49.20
2022-10-02T17:23:48.252Z,35.30
2022-10-02T17:26:43.482Z,38.30
2022-10-02T17:29:12.937Z,33.30
2022-10-02T17:31:57.319Z,34.30
2022-10-02T17:34:33.404Z,42.20
2022-10-02T17:37:40.040Z,38.70
2022-10-02T17:40:27.982Z,48.60
2022-10-02T17:43:29.438Z,54.20
2022-10-02T17:46:23.623Z,33.40
2022-10-02T17:49:02.655Z,36.10
2022-10-02T17:54:50.220Z,45.50
2022-10-02T17:57:36.916Z,114.00
2022-10-02T18:00:18.839Z,52.80
2022-10-02T18:03:13.234Z,87.40
2022-10-02T18:05:56.773Z,38.50
2022-10-02T18:08:41.542Z,29.60
2022-10-02T18:11:23.336Z,28.10
2022-10-02T18:14:10.253Z,26.50
2022-10-02T18:17:08.947Z,30.20
2022-10-02T18:19:59.555Z,24.50
2022-10-02T18:22:50.259Z,25.20
2022-10-02T18:25:36.660Z,23.30
2022-10-02T18:28:21.303Z,19.30
2022-10-02T18:30:54.929Z,24.80
2022-10-02T18:33:36.932Z,25.90
2022-10-02T18:36:25.095Z,26.60
2022-10-02T18:39:07.827Z,26.20
2022-10-02T18:42:10.057Z,24.20
2022-10-02T18:45:13.795Z,37.80
2022-10-02T18:47:56.203Z,32.40
2022-10-02T18:50:54.898Z,48.10
2022-10-02T18:53:33.632Z,45.10
2022-10-02T18:56:08.909Z,40.50
2022-10-02T18:59:20.362Z,38.90
2022-10-02T19:02:25.113Z,34.30
2022-10-02T19:05:12.328Z,34.70
2022-10-02T19:07:45.657Z,37.00
2022-10-02T19:10:25.962Z,35.70
2022-10-02T19:12:56.867Z,28.30
2022-10-02T19:15:27.874Z,26.90
2022-10-02T19:18:20.425Z,29.60
2022-10-02T19:20:49.860Z,32.20
2022-10-02T19:23:30.441Z,33.70
2022-10-02T19:26:02.568Z,30.60
2022-10-02T19:28:31.732Z,29.30
2022-10-02T19:31:03.545Z,32.80
2022-10-02T19:33:42.166Z,37.50
2022-10-02T19:36:16.070Z,35.30
2022-10-02T19:38:49.705Z,33.40
2022-10-02T19:41:17.346Z,36.40
2022-10-02T19:44:08.035Z,33.40
2022-10-02T19:46:44.932Z,38.40
2022-10-02T19:49:22.293Z,35.70
2022-10-02T19:51:49.406Z,35.10
2022-10-02T19:54:20.122Z,40.90
2022-10-02T19:56:47.446Z,37.90
2022-10-02T19:59:23.846Z,32.50
2022-10-02T20:01:53.373Z,37.00
2022-10-02T20:04:26.145Z,38.00
2022-10-02T20:06:57.669Z,33.10
2022-10-02T20:09:26.733Z,35.60
2022-10-02T20:12:01.300Z,36.80
2022-10-02T20:14:37.572Z,61.50
2022-10-02T20:17:04.887Z,79.60
2022-10-02T20:19:36.406Z,52.30
2022-10-02T20:22:15.538Z,62.10
2022-10-02T20:25:07.714Z,98.20
2022-10-02T20:27:46.099Z,56.00
2022-10-02T20:30:16.746Z,50.90
2022-10-02T20:33:10.204Z,46.00
2022-10-02T20:35:46.924Z,41.50
2022-10-02T20:38:29.088Z,35.70
2022-10-02T20:40:58.218Z,27.70
2022-10-02T20:43:43.016Z,26.60
2022-10-02T20:46:33.816Z,20.60
2022-10-02T20:49:10.902Z,15.00
2022-10-02T20:51:55.779Z,12.10
2022-10-02T20:54:34.852Z,14.00
2022-10-02T20:57:38.153Z,9.10
2022-10-02T21:00:10.072Z,8.80
2022-10-02T21:03:01.221Z,8.60
2022-10-02T21:05:27.823Z,7.10
2022-10-02T21:07:57.080Z,8.90
2022-10-02T21:10:33.865Z,6.20
2022-10-02T21:13:09.611Z,6.10
2022-10-02T21:16:05.795Z,7.00
2022-10-02T21:19:10.099Z,6.20
2022-10-02T21:22:01.296Z,5.40
2022-10-02T21:24:38.588Z,6.00
2022-10-02T21:27:24.970Z,6.50
2022-10-02T21:30:00.273Z,4.90
2022-10-02T21:32:53.613Z,5.00
2022-10-02T21:35:44.480Z,5.50
2022-10-02T21:38:40.042Z,5.80
2022-10-02T21:41:22.861Z,5.50
2022-10-02T21:44:10.303Z,4.40
2022-10-02T21:47:01.603Z,4.30
2022-10-02T21:49:43.619Z,4.10
2022-10-02T21:52:28.304Z,5.50
2022-10-02T21:55:09.880Z,4.80
2022-10-02T21:57:58.235Z,5.40
2022-10-02T22:00:29.482Z,4.00
2022-10-02T22:05:59.177Z,4.80
2022-10-02T22:08:47.010Z,5.40
2022-10-02T22:11:47.095Z,4.70
2022-10-02T22:14:19.561Z,7.40
2022-10-02T22:17:17.752Z,5.80
2022-10-02T22:19:47.060Z,5.40
2022-10-02T22:22:28.957Z,4.70
2022-10-02T22:25:01.204Z,6.00
2022-10-02T22:27:34.021Z,5.30
2022-10-02T22:30:00.678Z,4.20
2022-10-02T22:32:38.060Z,6.20
2022-10-02T22:35:21.495Z,8.40
2022-10-02T22:38:26.541Z,4.30
2022-10-02T22:40:58.606Z,6.40
2022-10-02T22:43:35.077Z,4.90
2022-10-02T22:46:24.731Z,5.90
2022-10-02T22:49:03.474Z,6.10
2022-10-02T22:51:45.384Z,3.60
2022-10-02T22:54:34.965Z,5.00
2022-10-02T22:57:14.021Z,8.10
2022-10-02T23:00:04.397Z,6.60
2022-10-02T23:02:35.514Z,4.10
2022-10-02T23:07:47.482Z,5.10
2022-10-02T23:10:54.864Z,7.50
2022-10-02T23:13:34.115Z,6.30
2022-10-02T23:16:10.328Z,6.50
2022-10-02T23:18:50.475Z,8.00
2022-10-02T23:21:29.359Z,7.20
2022-10-02T23:24:25.186Z,7.70
2022-10-02T23:26:54.075Z,8.40
2022-10-02T23:30:02.804Z,5.10
2022-10-02T23:32:38.170Z,6.70
2022-10-02T23:35:26.298Z,7.90
2022-10-02T23:38:04.501Z,9.20
2022-10-02T23:40:55.863Z,6.10
2022-10-02T23:43:30.033Z,5.80
2022-10-02T23:46:03.898Z,6.20
2022-10-02T23:48:31.629Z,7.30
2022-10-02T23:51:15.804Z,8.30
2022-10-02T23:54:00.756Z,5.90
2022-10-02T23:57:38.160Z,7.30
